Time;durP1;ratioP1;P1;durP2;ratioP2;P2;SDS_P1;SDS_P2;PMS_P1;PMS_P2;Temp;Humidity;BMP_temperature;BMP_pressure;BME280_temperature;BME280_humidity;BME280_pressure;Samples;Min_cycle;Max_cycle;Signal;HPM_P1;HPM_P2
2022/12/28 15:03:21;;;;;;;4.13;1.23;;;9.60;81.20;;;;;;5132138;27;20110;-58
2022/12/28 15:05:53;;;;;;;7.72;1.27;;;9.60;81.30;;;;;;5131353;28;20431;-57
2022/12/28 15:08:19;;;;;;;3.38;1.30;;;9.70;81.10;;;;;;5131629;28;20026;-58
2022/12/28 15:10:48;;;;;;;6.45;1.52;;;9.70;81.10;;;;;;5113780;28;20481;-59
2022/12/28 15:13:15;;;;;;;1.58;1.42;;;9.70;80.80;;;;;;5112881;28;20025;-57
2022/12/28 15:15:41;;;;;;;2.58;1.20;;;9.70;80.40;;;;;;5131101;28;20054;-59
2022/12/28 15:18:07;;;;;;;6.40;2.55;;;9.70;80.70;;;;;;5131614;27;20020;-54
2022/12/28 15:20:35;;;;;;;3.35;1.70;;;9.70;81.00;;;;;;5131620;27;20487;-60
2022/12/28 15:23:01;;;;;;;2.95;0.98;;;9.70;80.90;;;;;;5129812;28;20024;-58
2022/12/28 15:25:26;;;;;;;2.72;1.45;;;9.70;80.30;;;;;;5131121;27;20482;-61
2022/12/28 15:27:52;;;;;;;3.88;1.42;;;9.70;80.20;;;;;;5131666;28;20020;-57
2022/12/28 15:30:19;;;;;;;0.82;0.80;;;9.70;80.60;;;;;;5131006;27;20020;-58
2022/12/28 15:32:45;;;;;;;1.70;1.08;;;9.70;80.30;;;;;;5130980;27;20059;-60
2022/12/28 15:35:11;;;;;;;6.80;1.00;;;9.60;80.60;;;;;;5131095;28;20123;-59
2022/12/28 15:37:38;;;;;;;4.00;1.63;;;9.80;79.90;;;;;;5130115;28;20051;-59
2022/12/28 15:40:05;;;;;;;3.13;1.50;;;9.80;79.90;;;;;;5129243;28;20042;-60
2022/12/28 15:42:30;;;;;;;5.97;1.40;;;9.70;80.00;;;;;;5130449;28;20031;-59
2022/12/28 15:44:56;;;;;;;3.28;1.55;;;9.70;80.00;;;;;;5131202;27;20451;-57
2022/12/28 15:47:22;;;;;;;5.05;1.65;;;9.60;80.30;;;;;;5130672;27;20132;-58
2022/12/28 15:49:48;;;;;;;4.65;1.67;;;9.70;79.90;;;;;;5129187;28;20058;-56
2022/12/28 15:52:14;;;;;;;6.10;1.95;;;9.80;79.40;;;;;;5128848;28;20059;-58
2022/12/28 15:54:39;;;;;;;3.50;1.95;;;9.70;79.60;;;;;;5130572;27;20451;-57
2022/12/28 15:57:05;;;;;;;2.08;1.48;;;9.70;79.60;;;;;;5130711;27;20102;-59
2022/12/28 15:59:30;;;;;;;2.53;1.52;;;9.70;79.40;;;;;;5130322;27;20029;-59
2022/12/28 16:01:56;;;;;;;3.05;1.20;;;9.80;79.10;;;;;;5129877;27;20048;-57
2022/12/28 16:04:22;;;;;;;8.55;1.75;;;9.80;78.80;;;;;;5130166;27;20138;-55
2022/12/28 16:06:47;;;;;;;5.13;2.45;;;9.80;78.90;;;;;;5130153;27;20030;-60
2022/12/28 16:09:13;;;;;;;2.38;1.45;;;9.80;78.60;;;;;;5130273;27;20019;-57
2022/12/28 16:11:40;;;;;;;7.63;1.73;;;9.80;78.00;;;;;;5130254;27;20023;-57
2022/12/28 16:14:10;;;;;;;4.93;1.65;;;9.80;78.40;;;;;;5117001;28;20387;-56
2022/12/28 16:16:38;;;;;;;4.90;1.40;;;9.80;78.40;;;;;;5115799;28;20141;-59
2022/12/28 16:19:05;;;;;;;5.07;1.20;;;9.80;77.80;;;;;;5116076;28;20067;-56
2022/12/28 16:21:31;;;;;;;3.13;2.28;;;9.80;77.70;;;;;;5116172;28;20038;-58
2022/12/28 16:23:58;;;;;;;1.27;1.13;;;9.80;77.60;;;;;;5116066;28;20019;-58
2022/12/28 16:26:24;;;;;;;3.78;1.10;;;10.00;76.90;;;;;;5115874;28;20020;-60
2022/12/28 16:28:50;;;;;;;4.22;1.08;;;9.90;77.00;;;;;;5116021;27;20034;-61
2022/12/28 16:31:26;;;;;;;3.72;1.50;;;10.00;76.20;;;;;;5113989;28;20020;-58
2022/12/28 16:34:01;;;;;;;6.72;2.83;;;10.00;76.40;;;;;;5115846;28;20024;-59
2022/12/28 16:36:27;;;;;;;6.00;1.52;;;10.00;76.60;;;;;;5116005;28;20107;-55
2022/12/28 16:38:53;;;;;;;2.95;1.30;;;10.00;76.20;;;;;;5115794;28;20028;-57
2022/12/28 16:41:20;;;;;;;2.30;1.30;;;10.00;76.30;;;;;;5114010;28;20059;-59
2022/12/28 16:43:46;;;;;;;1.48;1.15;;;10.00;76.00;;;;;;5114197;28;20451;-59
2022/12/28 16:46:12;;;;;;;2.13;1.40;;;10.00;76.50;;;;;;5114268;28;20482;-56
2022/12/28 16:48:38;;;;;;;1.38;0.98;;;10.00;76.40;;;;;;5115348;28;20032;-57
2022/12/28 16:51:05;;;;;;;2.28;1.42;;;10.10;75.50;;;;;;5115900;28;20028;-58
2022/12/28 16:53:34;;;;;;;2.90;1.15;;;10.10;75.30;;;;;;5115979;28;20031;-56
2022/12/28 16:56:01;;;;;;;2.45;1.50;;;10.10;75.40;;;;;;5115756;28;20490;-57
2022/12/28 16:58:28;;;;;;;5.50;1.80;;;10.10;75.50;;;;;;5114276;28;20479;-64
2022/12/28 17:00:54;;;;;;;0.90;0.90;;;10.10;75.30;;;;;;5115549;28;20023;-63
2022/12/28 17:03:20;;;;;;;2.25;1.88;;;10.10;75.20;;;;;;5114443;28;20023;-63
2022/12/28 17:05:50;;;;;;;7.18;1.58;;;10.20;75.00;;;;;;5114184;28;20027;-64
2022/12/28 17:08:16;;;;;;;5.50;2.33;;;10.20;75.00;;;;;;5115172;28;20024;-64
2022/12/28 17:10:42;;;;;;;5.10;2.00;;;10.10;75.80;;;;;;5115223;27;20371;-63
2022/12/28 17:13:07;;;;;;;2.47;1.42;;;10.10;75.20;;;;;;5115689;28;20336;-63
2022/12/28 17:15:33;;;;;;;5.95;1.70;;;10.10;75.60;;;;;;5115298;28;20107;-63
2022/12/28 17:17:59;;;;;;;4.38;2.35;;;10.10;75.90;;;;;;5115107;28;20023;-63
2022/12/28 17:20:26;;;;;;;4.80;2.65;;;10.00;76.50;;;;;;5115461;28;20463;-63
2022/12/28 17:22:52;;;;;;;3.28;1.80;;;9.90;76.90;;;;;;5115472;27;20027;-63
2022/12/28 17:25:18;;;;;;;1.85;1.52;;;9.90;77.50;;;;;;5112829;28;20076;-64
2022/12/28 17:27:43;;;;;;;1.40;1.25;;;9.80;78.40;;;;;;5114748;28;20059;-62
2022/12/28 17:30:10;;;;;;;1.65;0.98;;;9.70;79.10;;;;;;5114777;28;20020;-63
2022/12/28 17:32:36;;;;;;;6.68;1.52;;;9.60;79.90;;;;;;5114620;28;20046;-63
2022/12/28 17:35:02;;;;;;;2.72;1.40;;;9.50;80.40;;;;;;5114693;28;20024;-63
2022/12/28 17:37:27;;;;;;;2.75;1.40;;;9.50;80.90;;;;;;5114430;28;20487;-64
2022/12/28 17:39:55;;;;;;;4.55;1.00;;;9.30;81.70;;;;;;5115500;28;20420;-62
2022/12/28 17:42:21;;;;;;;3.83;1.50;;;9.30;82.30;;;;;;5116185;28;20107;-62
2022/12/28 17:44:47;;;;;;;2.45;1.40;;;9.20;83.00;;;;;;5113951;28;20110;-64
2022/12/28 17:47:13;;;;;;;3.78;1.80;;;9.20;82.70;;;;;;5114689;28;20091;-62
2022/12/28 17:49:39;;;;;;;1.83;1.33;;;9.20;83.40;;;;;;5115287;28;20041;-62
2022/12/28 17:52:07;;;;;;;2.15;1.15;;;9.10;83.60;;;;;;5114849;28;20051;-63
2022/12/28 17:54:34;;;;;;;2.50;1.55;;;9.00;84.20;;;;;;5114612;28;20024;-64
2022/12/28 17:56:59;;;;;;;4.95;1.48;;;9.00;84.60;;;;;;5113156;28;20055;-63
2022/12/28 17:59:25;;;;;;;4.40;1.20;;;9.00;85.40;;;;;;5112988;28;20032;-64
2022/12/28 18:01:52;;;;;;;2.55;2.15;;;9.00;85.40;;;;;;5113912;28;20243;-63
2022/12/28 18:04:18;;;;;;;4.18;1.73;;;8.90;85.70;;;;;;5114345;28;20383;-62
2022/12/28 18:06:44;;;;;;;2.22;1.17;;;8.80;86.40;;;;;;5114156;28;20024;-62
2022/12/28 18:09:09;;;;;;;5.15;2.38;;;8.80;86.40;;;;;;5114232;28;20081;-63
2022/12/28 18:11:35;;;;;;;3.47;1.40;;;8.80;87.10;;;;;;5114326;28;20038;-61
2022/12/28 18:14:01;;;;;;;10.02;1.67;;;8.80;86.90;;;;;;5112902;28;20031;-63
2022/12/28 18:16:26;;;;;;;1.52;1.08;;;8.80;87.10;;;;;;5114126;28;20371;-64
2022/12/28 18:18:52;;;;;;;2.70;1.70;;;8.60;87.50;;;;;;5114412;28;20115;-63
2022/12/28 18:21:21;;;;;;;1.67;1.38;;;8.60;87.90;;;;;;5114053;28;20483;-62
2022/12/28 18:23:49;;;;;;;3.38;2.30;;;8.60;88.00;;;;;;5114188;28;20537;-65
2022/12/28 18:26:21;;;;;;;6.90;2.05;;;8.70;87.80;;;;;;5113910;28;20352;-64
2022/12/28 18:28:47;;;;;;;1.65;1.10;;;8.50;88.20;;;;;;5114150;28;20052;-62
2022/12/28 18:31:12;;;;;;;2.50;1.60;;;8.60;88.00;;;;;;5114324;28;20069;-63
2022/12/28 18:33:38;;;;;;;4.63;1.60;;;8.60;88.30;;;;;;5113814;28;20027;-63
2022/12/28 18:36:06;;;;;;;2.45;1.67;;;8.70;88.20;;;;;;5113780;28;20374;-63
2022/12/28 18:38:34;;;;;;;2.70;1.88;;;8.70;88.40;;;;;;5113773;28;20031;-64
2022/12/28 18:41:00;;;;;;;1.80;1.40;;;8.60;88.20;;;;;;5113840;28;20019;-62
2022/12/28 18:43:26;;;;;;;3.80;2.25;;;8.50;88.80;;;;;;5114144;28;20024;-63
2022/12/28 18:45:58;;;;;;;3.85;2.38;;;8.60;88.80;;;;;;5112763;28;20024;-63
2022/12/28 18:48:25;;;;;;;3.67;2.17;;;8.60;88.90;;;;;;5112830;28;20043;-63
2022/12/28 18:50:58;;;;;;;2.10;1.20;;;8.60;89.10;;;;;;5112479;28;20059;-63
2022/12/28 18:53:26;;;;;;;5.38;1.63;;;8.60;89.60;;;;;;5113558;28;20050;-63
2022/12/28 18:56:00;;;;;;;2.90;1.73;;;8.60;89.60;;;;;;5114370;28;20104;-62
2022/12/28 18:58:29;;;;;;;2.13;1.73;;;8.50;89.70;;;;;;5095532;28;20019;-62
2022/12/28 19:01:06;;;;;;;8.15;1.50;;;8.50;90.00;;;;;;5113266;28;20023;-62
2022/12/28 19:03:33;;;;;;;7.05;2.47;;;8.50;90.50;;;;;;5112860;28;20027;-63
2022/12/28 19:06:00;;;;;;;2.53;1.42;;;8.40;90.60;;;;;;5112260;28;20019;-62
2022/12/28 19:08:26;;;;;;;4.70;2.05;;;8.50;90.60;;;;;;5113791;28;20055;-62
2022/12/28 19:10:52;;;;;;;5.90;2.03;;;8.40;90.80;;;;;;5113732;28;20078;-64
2022/12/28 19:13:18;;;;;;;2.90;1.65;;;8.40;90.90;;;;;;5112234;28;20031;-63
2022/12/28 19:15:44;;;;;;;10.00;2.25;;;8.40;91.20;;;;;;5113321;28;20040;-62
2022/12/28 19:18:10;;;;;;;2.97;1.95;;;8.40;91.30;;;;;;5113507;28;20502;-63
2022/12/28 19:20:36;;;;;;;1.77;1.60;;;8.40;91.50;;;;;;5113481;28;20209;-63
2022/12/28 19:23:01;;;;;;;2.78;1.95;;;8.40;91.50;;;;;;5113292;28;20077;-63
2022/12/28 19:25:27;;;;;;;3.42;2.05;;;8.30;91.40;;;;;;5113329;28;20028;-63
2022/12/28 19:27:52;;;;;;;4.22;2.10;;;8.30;91.70;;;;;;5113244;28;20024;-63
2022/12/28 19:30:18;;;;;;;3.20;1.98;;;8.30;92.00;;;;;;5114176;28;20024;-62
2022/12/28 19:32:44;;;;;;;4.60;2.42;;;8.30;92.00;;;;;;5113310;28;20111;-63
2022/12/28 19:35:09;;;;;;;4.32;1.83;;;8.40;92.10;;;;;;5113509;28;20028;-62
2022/12/28 19:37:37;;;;;;;6.82;2.45;;;8.30;92.20;;;;;;5111901;28;20024;-63
2022/12/28 19:40:04;;;;;;;4.72;2.28;;;8.30;92.30;;;;;;5112677;28;20031;-63
2022/12/28 19:42:30;;;;;;;5.72;2.35;;;8.40;92.20;;;;;;5112060;28;20080;-63
2022/12/28 19:44:56;;;;;;;1.52;1.33;;;8.30;92.30;;;;;;5113169;28;20023;-63
2022/12/28 19:47:21;;;;;;;6.80;2.00;;;8.30;92.40;;;;;;5113067;28;20069;-62
2022/12/28 19:49:47;;;;;;;5.93;2.38;;;8.40;92.20;;;;;;5116774;28;20019;-62
2022/12/28 19:52:13;;;;;;;5.05;1.75;;;8.30;92.40;;;;;;5117020;28;20023;-62
2022/12/28 19:54:38;;;;;;;1.80;1.60;;;8.30;92.40;;;;;;5116821;27;20031;-62
2022/12/28 19:57:04;;;;;;;1.50;1.40;;;8.30;92.50;;;;;;5117530;28;20052;-63
2022/12/28 19:59:30;;;;;;;4.15;1.90;;;8.30;92.40;;;;;;5116989;28;20023;-63
2022/12/28 20:01:55;;;;;;;2.05;1.52;;;8.30;92.60;;;;;;5116593;28;20031;-64
2022/12/28 20:04:21;;;;;;;3.40;1.55;;;8.30;92.60;;;;;;5116890;28;20024;-63
2022/12/28 20:06:46;;;;;;;5.88;2.65;;;8.30;92.70;;;;;;5116844;28;20024;-63
2022/12/28 20:09:13;;;;;;;2.63;1.58;;;8.30;92.80;;;;;;5117008;28;20024;-63
2022/12/28 20:11:39;;;;;;;1.77;1.48;;;8.40;92.90;;;;;;5116531;28;20110;-63
2022/12/28 20:14:05;;;;;;;3.75;1.80;;;8.40;93.00;;;;;;5116617;28;20066;-63
2022/12/28 20:16:33;;;;;;;2.75;1.80;;;8.40;92.90;;;;;;5116729;28;20032;-63
2022/12/28 20:19:00;;;;;;;2.03;1.48;;;8.40;92.90;;;;;;5116327;28;20186;-63
2022/12/28 20:21:26;;;;;;;1.65;1.25;;;8.50;92.70;;;;;;5116401;28;20375;-63
2022/12/28 20:23:53;;;;;;;1.90;1.35;;;8.60;92.50;;;;;;5116734;28;20050;-63
2022/12/28 20:26:20;;;;;;;4.50;1.50;;;8.60;92.40;;;;;;5116580;28;20055;-63
2022/12/28 20:28:48;;;;;;;1.23;1.00;;;8.70;92.30;;;;;;5116654;28;20024;-64
2022/12/28 20:31:14;;;;;;;3.78;1.50;;;8.80;92.10;;;;;;5115217;28;20452;-63
2022/12/28 20:33:41;;;;;;;1.65;1.48;;;8.70;92.10;;;;;;5116569;28;20102;-63
2022/12/28 20:36:20;;;;;;;2.83;1.02;;;8.80;92.00;;;;;;5116517;28;20103;-63
2022/12/28 20:38:46;;;;;;;3.90;0.98;;;8.80;91.90;;;;;;5116402;28;20383;-62
2022/12/28 20:44:05;;;;;;;3.20;2.13;;;9.00;90.90;;;;;;5116765;28;20421;-63
2022/12/28 20:46:32;;;;;;;2.28;1.13;;;9.00;91.10;;;;;;5116210;28;20592;-63
2022/12/28 20:48:58;;;;;;;1.98;1.00;;;9.00;91.10;;;;;;5116163;28;20482;-64
2022/12/28 20:51:24;;;;;;;6.20;1.30;;;9.00;90.90;;;;;;5114824;28;20038;-63
2022/12/28 20:53:49;;;;;;;2.60;1.00;;;9.10;90.70;;;;;;5114701;28;20030;-64
2022/12/28 20:56:15;;;;;;;1.15;1.10;;;9.10;90.70;;;;;;5116161;28;20020;-64
2022/12/28 20:58:41;;;;;;;2.60;1.70;;;9.10;90.70;;;;;;5115787;28;20062;-64
